ADDS METAR Data INFO
IDs: Format: Raw Decoded Include TAF

Data at: 0950 UTC 25 Jun 2018

KCWV 250935Z AUTO 00000KT 7SM CLR 25/25 A3007 RMK AO2 T02530245
KCWV 250915Z AUTO 00000KT 10SM CLR 26/25 A3005 RMK AO2 T02590247
KCWV 250855Z AUTO 00000KT 10SM CLR 26/25 A3004 RMK AO2 T02610248
KCWV 250835Z AUTO 00000KT 10SM CLR 26/25 A3003 RMK AO2 T02600247
KCWV 250815Z AUTO 00000KT 10SM CLR 25/24 A3003 RMK AO2 T02520244
KCWV 250755Z AUTO 00000KT 10SM CLR 26/24 A3004 RMK AO2 T02600242
KCWV 250735Z AUTO 00000KT 7SM CLR 26/25 A3004 RMK AO2 LTG DSNT SE T02620245
KCWV 250715Z AUTO 00000KT 10SM SCT018 27/25 A3004 RMK AO2 T02650246
KCWV 250655Z AUTO 00000KT 10SM BKN018 27/25 A3005 RMK AO2 LTG DSNT E T02690249
KCWV 250635Z AUTO 07003KT 10SM SCT055 27/25 A3005 RMK AO2 T02700249
KCWV 250615Z AUTO 03005KT 10SM SCT055 BKN080 27/25 A3005 RMK AO2 LTG DSNT E T02740250
KCWV 250555Z AUTO 13004KT 10SM BKN055 OVC080 27/25 A3006 RMK AO2 T02730251 10321 20258 403550226
KCWV 250535Z AUTO 35006KT 10SM SCT060 BKN080 28/25 A3007 RMK AO2 LTG DSNT NE AND E T02760253
KCWV 250515Z AUTO 00000KT 10SM SCT080 27/25 A3006 RMK AO2 LTG DSNT NE AND E T02710251
KCWV 250455Z AUTO 00000KT 10SM CLR 27/25 A3007 RMK AO2 LTG DSNT NE T02720251
KCWV 250435Z AUTO 00000KT 10SM CLR 27/25 A3007 RMK AO2 LTG DSNT NE T02690249
KCWV 250415Z AUTO 00000KT 10SM CLR 26/25 A3006 RMK AO2 LTG DSNT NE T02620248
KCWV 250355Z AUTO 00000KT 10SM CLR 26/25 A3005 RMK AO2 LTG DSNT NE T02580248
KCWV 250335Z AUTO 00000KT 10SM CLR 26/25 A3005 RMK AO2 LTG DSNT N T02600250
KCWV 250315Z AUTO 00000KT 7SM CLR 26/25 A3004 RMK AO2 LTG DSNT N T02630254
KCWV 250255Z AUTO 00000KT 7SM CLR 27/25 A3003 RMK AO2 T02650252
KCWV 250235Z AUTO 00000KT 7SM CLR 27/25 A3004 RMK AO2 T02700254
KCWV 250215Z AUTO 00000KT 7SM CLR 27/26 A3004 RMK AO2 T02690255
KCWV 250155Z AUTO 00000KT 7SM CLR 27/26 A3004 RMK AO2 T02720256
KCWV 250135Z AUTO 00000KT 7SM CLR 28/26 A3003 RMK AO2 T02750255
KCWV 250115Z AUTO 00000KT 7SM CLR 28/25 A3002 RMK AO2 T02810253
KCWV 250055Z AUTO 00000KT 10SM CLR 29/26 A3001 RMK AO2 T02870255
KCWV 250035Z AUTO 00000KT 7SM CLR 29/26 A3000 RMK AO2 T02920258
KCWV 250015Z AUTO 00000KT 7SM CLR 31/26 A2999 RMK AO2 T03090260
KCWV 242355Z AUTO 00000KT 7SM CLR 32/26 A2998 RMK AO2 T03190259 10355 20319
KCWV 242335Z AUTO 00000KT 10SM CLR 34/24 A2997 RMK AO2 T03370242
KCWV 242315Z AUTO 00000KT 7SM CLR 35/23 A2997 RMK AO2 T03450232
KCWV 242255Z AUTO 00000KT 7SM CLR 35/23 A2996 RMK AO2 T03450227
KCWV 242235Z AUTO 21003KT 10SM CLR 35/23 A2996 RMK AO2 T03510226
KCWV 242215Z AUTO 22003KT 7SM CLR 35/23 A2996 RMK AO2 T03500227
KCWV 242155Z AUTO 24004KT 7SM CLR 35/23 A2997 RMK AO2 T03520232
KCWV 242135Z AUTO 00000KT 7SM CLR 35/24 A2997 RMK AO2 T03500235
KCWV 242115Z AUTO 21003KT 7SM CLR 35/24 A2997 RMK AO2 T03510240
KCWV 242055Z AUTO 19006KT 10SM CLR 35/24 A2998 RMK AO2 T03470238
KCWV 242035Z AUTO 19004KT 7SM CLR 35/24 A2998 RMK AO2 T03500238
KCWV 242015Z AUTO 24005KT 7SM SCT048 35/24 A2999 RMK AO2 T03520237
KCWV 241955Z AUTO 21003KT 7SM SCT046 SCT055 35/24 A2999 RMK AO2 T03470237
KCWV 241935Z AUTO 24005KT 7SM SCT045 35/24 A3000 RMK AO2 T03480241
KCWV 241915Z AUTO 18004KT 7SM CLR 35/25 A3000 RMK AO2 T03520245
KCWV 241855Z AUTO 27006KT 7SM SCT044 SCT050 SCT065 35/24 A3000 RMK AO2 T03470242
KCWV 241835Z AUTO 23007KT 7SM SCT044 BKN050 BKN065 34/25 A3002 RMK AO2 T03400246
KCWV 241815Z AUTO 22003KT 7SM SCT046 35/25 A3002 RMK AO2 T03500246
KCWV 241755Z AUTO 27003G14KT 7SM SCT044 34/24 A3002 RMK AO2 T03440239 10347 20259
KCWV 241735Z AUTO 26004KT 7SM CLR 34/24 A3002 RMK AO2 T03420237
KCWV 241715Z AUTO 22003KT 10SM SCT038 SCT075 34/24 A3002 RMK AO2 T03410236
KCWV 241655Z AUTO 24007KT 10SM SCT038 34/25 A3003 RMK AO2 T03380247
KCWV 241635Z AUTO 26007KT 10SM CLR 34/25 A3004 RMK AO2 T03370251
KCWV 241615Z AUTO 26006KT 10SM CLR 33/25 A3004 RMK AO2 T03340247
KCWV 241555Z AUTO 26009KT 10SM CLR 33/25 A3004 RMK AO2 T03310251
KCWV 241535Z AUTO 22006KT 10SM CLR 33/25 A3004 RMK AO2 T03270252
KCWV 241515Z AUTO 26006KT 10SM CLR 32/26 A3004 RMK AO2 T03240255
KCWV 241455Z AUTO 24003KT 10SM CLR 32/25 A3005 RMK AO2 T03170252
KCWV 241435Z AUTO 00000KT 10SM CLR 31/26 A3005 RMK AO2 T03100255
KCWV 241415Z AUTO 25004KT 7SM CLR 31/25 A3005 RMK AO2 T03060253
KCWV 241355Z AUTO 00000KT 10SM CLR 30/26 A3004 RMK AO2 T02990255
KCWV 241335Z AUTO 25004KT 10SM CLR 30/25 A3004 RMK AO2 T02950254
KCWV 241315Z AUTO 24004KT 10SM CLR 29/25 A3004 RMK AO2 T02890252
KCWV 241255Z AUTO 24003KT 10SM CLR 28/25 A3003 RMK AO2 T02820249
KCWV 241235Z AUTO 21004KT 10SM CLR 28/25 A3003 RMK AO2 T02770249
KCWV 241215Z AUTO 00000KT 10SM CLR 27/25 A3003 RMK AO2 T02680247
KCWV 241155Z AUTO 00000KT 7SM CLR 26/25 A3003 RMK AO2 7//// T02570247 10257 20226
KCWV 241135Z AUTO 00000KT 7SM CLR 24/24 A3002 RMK AO2 T02400235
KCWV 241115Z AUTO 00000KT 5SM BR CLR 24/23 A3001 RMK AO2 T02350230
KCWV 241055Z AUTO 00000KT 5SM BR CLR 23/23 A3001 RMK AO2 T02310227
KCWV 241035Z AUTO 00000KT 3SM BR CLR 23/22 A3000 RMK AO2 T02270223
KCWV 241015Z AUTO 00000KT 5SM BR CLR 23/23 A3000 RMK AO2 T02280225
KCWV 240955Z AUTO 00000KT 5SM BR CLR 23/23 A2999 RMK AO2 T02290226
KCWV 240935Z AUTO 00000KT 5SM BR CLR 23/23 A2998 RMK AO2 T02300225
KCWV 240915Z AUTO 00000KT 5SM BR CLR 23/23 A2998 RMK AO2 T02290225
KCWV 240855Z AUTO 00000KT 5SM BR CLR 23/23 A2997 RMK AO2 T02300226
KCWV 240835Z AUTO 00000KT 5SM BR CLR 23/23 A2997 RMK AO2 T02310227
KCWV 240815Z AUTO 00000KT 5SM BR CLR 23/23 A2997 RMK AO2 T02330230
KCWV 240755Z AUTO 00000KT 7SM CLR 24/23 A2997 RMK AO2 T02350230
KCWV 240735Z AUTO 00000KT 7SM CLR 24/23 A2997 RMK AO2 T02360232
KCWV 240715Z AUTO 00000KT 4SM BR CLR 24/23 A2997 RMK AO2 T02360232
KCWV 240655Z AUTO 00000KT 7SM CLR 24/24 A2997 RMK AO2 T02400235
KCWV 240635Z AUTO 00000KT 7SM CLR 24/24 A2997 RMK AO2 T02440238
KCWV 240615Z AUTO 00000KT 10SM CLR 24/24 A2997 RMK AO2 T02420235
KCWV 240555Z AUTO 00000KT 7SM CLR 25/24 A2997 RMK AO2 T02450238 10260 20240
KCWV 240535Z AUTO 00000KT 10SM CLR 25/24 A2996 RMK AO2 T02500240
KCWV 240515Z AUTO 00000KT 10SM CLR 25/24 A2996 RMK AO2 T02520240
KCWV 240455Z AUTO 00000KT 10SM CLR 25/24 A2997 RMK AO2 T02500235
KCWV 240435Z AUTO 00000KT 10SM CLR 25/23 A2997 RMK AO2 T02490233
KCWV 240415Z AUTO 00000KT 10SM CLR 25/23 A2997 RMK AO2 T02460233
KCWV 240355Z AUTO 00000KT 7SM CLR 24/23 A2997 RMK AO2 T02400234
KCWV 240335Z AUTO 00000KT 10SM CLR 24/23 A2997 RMK AO2 T02410234
KCWV 240315Z AUTO 00000KT 10SM CLR 24/24 A2997 RMK AO2 T02420235
KCWV 240255Z AUTO 00000KT 10SM CLR 24/24 A2997 RMK AO2 T02430235
KCWV 240235Z AUTO 00000KT 10SM CLR 25/24 A2996 RMK AO2 T02470235
KCWV 240215Z AUTO 00000KT 10SM CLR 25/23 A2997 RMK AO2 T02500232
KCWV 240155Z AUTO 00000KT 10SM CLR 25/24 A2997 RMK AO2 T02500236
KCWV 240135Z AUTO 00000KT 10SM CLR 25/24 A2997 RMK AO2 T02500241
KCWV 240115Z AUTO 00000KT 10SM CLR 25/25 A2996 RMK AO2 T02510245
KCWV 240055Z AUTO 00000KT 7SM CLR 26/25 A2995 RMK AO2 LTG DSNT SE T02550248
KCWV 240035Z AUTO 00000KT 10SM CLR 26/25 A2995 RMK AO2 LTG DSNT SE T02580250
KCWV 240015Z AUTO 00000KT 10SM CLR 26/25 A2994 RMK AO2 T02580248
KCWV 232355Z AUTO 00000KT 10SM CLR 26/25 A2995 RMK AO2 LTG DSNT S T02610246 10345 20242
KCWV 232335Z AUTO 00000KT 10SM CLR 26/25 A2995 RMK AO2 LTG DSNT SE T02600247
KCWV 232315Z AUTO 00000KT 10SM CLR 26/25 A2994 RMK AO2 LTG DSNT SE T02600245
KCWV 232255Z AUTO 00000KT 10SM CLR 25/24 A2994 RMK AO2 LTG DSNT SE AND S T02540240
KCWV 232235Z AUTO 00000KT 10SM CLR 25/24 A2994 RMK AO2 LTG DSNT SE T02470237
KCWV 232215Z AUTO 00000KT 10SM SCT025 SCT035 SCT048 24/23 A2995 RMK AO2 LTG DSNT NE THRU SW T02440231
KCWV 232155Z AUTO 00000KT 5SM VCTSRA SCT024 BKN050 OVC080 25/23 A2996 RMK AO2 LTG DSNT ALQS T02460229